Time;durP1;ratioP1;P1;durP2;ratioP2;P2;SDS_P1;SDS_P2;PMS_P1;PMS_P2;Temp;Humidity;BMP_temperature;BMP_pressure;BME280_temperature;BME280_humidity;BME280_pressure;Samples;Min_cycle;Max_cycle;Signal;HPM_P1;HPM_P2
2023/06/06 00:00:37;;;;;;;5.37;4.87;;;22.90;55.30;;;;;;5016551;28;20204;-64
2023/06/06 00:03:02;;;;;;;5.30;4.80;;;22.90;55.30;;;;;;5016479;28;20442;-64
2023/06/06 00:05:29;;;;;;;4.97;4.47;;;22.90;55.30;;;;;;5008519;28;20474;-64
2023/06/06 00:07:55;;;;;;;6.53;4.73;;;22.90;55.30;;;;;;5012678;28;20311;-64
2023/06/06 00:10:20;;;;;;;7.70;4.63;;;22.90;55.50;;;;;;5018676;28;20473;-64
2023/06/06 00:12:52;;;;;;;5.17;4.77;;;22.80;55.40;;;;;;5017159;28;20183;-64
2023/06/06 00:15:19;;;;;;;4.80;4.40;;;22.80;55.60;;;;;;5019523;28;20192;-64
2023/06/06 00:17:45;;;;;;;4.67;4.27;;;22.70;55.60;;;;;;5009386;28;20440;-64
2023/06/06 00:20:12;;;;;;;5.27;4.77;;;22.70;55.50;;;;;;5017076;28;20466;-65
2023/06/06 00:22:39;;;;;;;7.50;6.43;;;22.70;55.60;;;;;;5009704;28;20480;-65
2023/06/06 00:25:05;;;;;;;4.83;4.43;;;22.70;55.70;;;;;;5021925;28;21228;-64
2023/06/06 00:27:33;;;;;;;4.27;3.87;;;22.60;56.10;;;;;;5012187;28;20427;-64
2023/06/06 00:29:58;;;;;;;5.37;4.87;;;22.60;56.20;;;;;;5042704;28;20525;-65
2023/06/06 00:32:26;;;;;;;7.03;4.40;;;22.50;56.10;;;;;;5011272;28;21054;-65
2023/06/06 00:34:51;;;;;;;6.60;4.53;;;22.50;56.10;;;;;;5014795;28;20303;-64
2023/06/06 00:37:17;;;;;;;4.73;4.33;;;22.40;56.20;;;;;;5012707;28;20530;-65
2023/06/06 00:39:42;;;;;;;7.00;4.50;;;22.40;56.30;;;;;;5009253;28;20697;-64
2023/06/06 00:42:08;;;;;;;6.37;4.17;;;22.40;56.40;;;;;;5015646;28;20185;-64
2023/06/06 00:44:34;;;;;;;4.80;4.30;;;22.40;56.50;;;;;;5013036;28;20200;-65
2023/06/06 00:47:00;;;;;;;10.00;4.73;;;22.30;56.60;;;;;;5015556;28;20271;-64
2023/06/06 00:49:26;;;;;;;5.13;4.67;;;22.30;56.60;;;;;;5008205;28;20287;-64
2023/06/06 00:51:52;;;;;;;5.33;4.83;;;22.30;57.30;;;;;;5013493;28;20936;-64
2023/06/06 00:54:18;;;;;;;6.80;3.90;;;22.30;56.90;;;;;;5018677;28;20188;-64
2023/06/06 00:56:45;;;;;;;4.97;4.47;;;22.20;56.90;;;;;;5015376;28;20216;-64
2023/06/06 00:59:12;;;;;;;5.20;4.70;;;22.20;57.10;;;;;;5016245;28;20462;-65
2023/06/06 01:01:39;;;;;;;4.90;4.50;;;22.20;57.10;;;;;;5011785;28;21302;-65
2023/06/06 01:04:08;;;;;;;4.93;4.47;;;22.20;57.20;;;;;;5009504;28;20813;-65
2023/06/06 01:06:37;;;;;;;5.10;4.00;;;22.10;57.50;;;;;;5012520;28;20977;-65
2023/06/06 01:09:09;;;;;;;4.83;4.17;;;22.10;57.70;;;;;;5015654;28;20509;-65
2023/06/06 01:11:51;;;;;;;4.37;3.97;;;22.10;57.70;;;;;;5013997;28;20458;-65
2023/06/06 01:14:25;;;;;;;4.80;4.40;;;22.00;58.00;;;;;;5015126;28;20469;-65
2023/06/06 01:16:52;;;;;;;4.80;4.40;;;21.90;59.10;;;;;;5018547;28;20434;-65
2023/06/06 01:19:27;;;;;;;4.40;4.00;;;21.90;58.30;;;;;;5015235;28;20463;-65
2023/06/06 01:21:54;;;;;;;5.40;4.57;;;21.90;58.40;;;;;;5010136;28;21010;-65
2023/06/06 01:24:20;;;;;;;8.53;5.00;;;21.90;58.50;;;;;;5015544;28;21028;-65
2023/06/06 01:26:46;;;;;;;7.17;4.53;;;21.90;58.90;;;;;;5011909;28;20443;-65
2023/06/06 01:29:12;;;;;;;4.93;4.47;;;21.80;58.90;;;;;;5012900;28;20826;-65
2023/06/06 01:31:45;;;;;;;4.93;4.53;;;21.80;59.00;;;;;;5016872;28;20234;-65
2023/06/06 01:34:48;;;;;;;5.20;4.70;;;21.80;59.00;;;;;;5012463;28;20193;-65
2023/06/06 01:37:35;;;;;;;4.83;4.43;;;21.80;59.40;;;;;;4977162;28;20985;-66
2023/06/06 01:40:07;;;;;;;4.60;4.20;;;21.80;59.40;;;;;;5008005;28;20506;-65
2023/06/06 01:42:38;;;;;;;5.20;4.63;;;21.70;59.20;;;;;;5016504;28;20446;-65
2023/06/06 01:45:07;;;;;;;4.17;3.77;;;21.70;59.20;;;;;;5011141;28;20958;-65
2023/06/06 01:47:34;;;;;;;5.03;4.63;;;21.70;59.40;;;;;;5014382;28;20443;-65
2023/06/06 01:50:03;;;;;;;5.07;4.57;;;21.70;59.50;;;;;;5008125;28;20546;-65
2023/06/06 01:52:29;;;;;;;4.40;4.00;;;21.70;59.60;;;;;;5013045;28;20530;-65
2023/06/06 01:54:55;;;;;;;6.13;4.63;;;21.60;59.50;;;;;;5007545;28;20528;-65
2023/06/06 01:57:21;;;;;;;7.50;4.60;;;21.60;59.80;;;;;;5011812;28;20188;-65
2023/06/06 01:59:47;;;;;;;5.97;4.90;;;21.60;59.80;;;;;;5008391;28;20454;-65
2023/06/06 02:02:14;;;;;;;4.90;4.50;;;21.60;59.90;;;;;;5017522;28;20228;-66
2023/06/06 02:04:41;;;;;;;5.37;4.87;;;21.50;59.90;;;;;;5006008;28;20208;-66
2023/06/06 02:07:07;;;;;;;5.60;4.40;;;21.50;60.10;;;;;;5006166;28;20428;-65
2023/06/06 02:09:32;;;;;;;4.90;4.50;;;21.50;60.40;;;;;;5014808;28;20458;-65
2023/06/06 02:11:58;;;;;;;5.03;4.53;;;21.50;60.50;;;;;;5009696;28;20215;-65
2023/06/06 02:14:23;;;;;;;5.00;4.60;;;21.40;61.00;;;;;;5015364;28;20274;-65
2023/06/06 02:16:50;;;;;;;4.93;4.33;;;21.40;61.10;;;;;;5012256;28;20190;-65
2023/06/06 02:19:16;;;;;;;5.50;4.87;;;21.40;61.50;;;;;;5012585;28;20297;-65
2023/06/06 02:21:42;;;;;;;5.23;4.70;;;21.40;62.60;;;;;;5004458;28;20478;-66
2023/06/06 02:24:07;;;;;;;5.33;4.83;;;21.30;61.80;;;;;;5012534;28;20877;-65
2023/06/06 02:26:35;;;;;;;5.60;5.10;;;21.20;62.20;;;;;;5010245;28;20686;-66
2023/06/06 02:29:01;;;;;;;5.60;5.10;;;21.10;63.30;;;;;;5038775;28;20211;-65
2023/06/06 02:31:27;;;;;;;5.40;4.90;;;21.10;63.30;;;;;;5014337;28;20542;-65
2023/06/06 02:33:53;;;;;;;5.60;5.10;;;21.10;63.40;;;;;;5008228;28;20519;-65
2023/06/06 02:36:19;;;;;;;7.50;5.53;;;21.10;63.80;;;;;;5011584;28;20196;-65
2023/06/06 02:38:45;;;;;;;5.50;5.07;;;21.00;64.10;;;;;;5008200;28;20208;-65
2023/06/06 02:41:11;;;;;;;9.60;5.30;;;20.90;64.60;;;;;;5016916;28;20916;-65
2023/06/06 02:43:39;;;;;;;6.00;5.40;;;20.90;64.90;;;;;;5016891;28;20200;-65
2023/06/06 02:46:04;;;;;;;5.00;4.60;;;20.90;65.10;;;;;;5009503;28;20274;-65
2023/06/06 02:48:30;;;;;;;7.57;5.30;;;20.90;65.50;;;;;;5007678;28;20952;-65
2023/06/06 02:50:55;;;;;;;5.20;4.70;;;20.80;65.80;;;;;;5015798;28;20184;-65
2023/06/06 02:53:21;;;;;;;5.53;5.00;;;20.80;66.10;;;;;;5016340;28;20242;-65
2023/06/06 02:55:47;;;;;;;9.20;5.33;;;20.70;66.50;;;;;;5010342;28;20180;-66
2023/06/06 02:58:29;;;;;;;8.33;5.30;;;20.60;66.80;;;;;;5008615;28;20236;-65
2023/06/06 03:00:56;;;;;;;6.70;5.27;;;20.60;68.30;;;;;;5005554;28;20193;-65
2023/06/06 03:03:22;;;;;;;6.93;5.40;;;20.50;67.70;;;;;;5009387;28;20626;-65
2023/06/06 03:05:51;;;;;;;5.73;5.20;;;20.50;68.10;;;;;;5009734;28;20474;-66
2023/06/06 03:08:18;;;;;;;5.30;4.90;;;20.60;68.50;;;;;;5010695;28;20486;-65
2023/06/06 03:10:47;;;;;;;6.23;5.73;;;20.50;68.90;;;;;;5013956;28;20419;-65
2023/06/06 03:13:13;;;;;;;5.97;5.47;;;20.50;69.30;;;;;;5013649;28;20815;-63
2023/06/06 03:15:46;;;;;;;5.67;5.07;;;20.40;70.60;;;;;;5004525;28;20439;-65
2023/06/06 03:18:16;;;;;;;6.07;5.40;;;20.40;70.50;;;;;;5007659;28;20546;-65
2023/06/06 03:20:53;;;;;;;5.87;5.27;;;20.30;70.80;;;;;;5007672;28;20467;-65
2023/06/06 03:23:20;;;;;;;6.47;5.73;;;20.30;71.20;;;;;;5013532;28;20439;-65
2023/06/06 03:25:51;;;;;;;6.03;5.47;;;20.30;71.70;;;;;;5004204;28;20481;-65
2023/06/06 03:28:18;;;;;;;6.63;5.93;;;20.20;72.30;;;;;;5003624;28;20548;-64
2023/06/06 03:30:45;;;;;;;6.30;5.80;;;20.20;73.20;;;;;;5010656;28;20429;-65
2023/06/06 03:33:11;;;;;;;6.43;5.83;;;20.10;73.50;;;;;;5008308;28;20428;-65
2023/06/06 03:35:37;;;;;;;5.97;5.40;;;20.10;73.80;;;;;;5010909;28;20427;-65
2023/06/06 03:38:03;;;;;;;6.80;6.10;;;20.10;74.30;;;;;;5011532;28;20788;-65
2023/06/06 03:40:28;;;;;;;8.63;5.73;;;20.10;74.60;;;;;;5012430;28;20674;-65
2023/06/06 03:42:54;;;;;;;6.20;5.03;;;20.10;74.90;;;;;;5008908;28;20639;-65
2023/06/06 03:45:21;;;;;;;6.30;5.70;;;20.10;75.10;;;;;;5011629;28;20216;-65
2023/06/06 03:47:47;;;;;;;6.47;5.87;;;20.10;75.50;;;;;;5009599;28;20169;-64
2023/06/06 03:50:13;;;;;;;6.20;5.70;;;20.10;75.80;;;;;;5010909;28;20683;-65
2023/06/06 03:52:42;;;;;;;6.10;5.60;;;20.00;76.50;;;;;;5015037;28;20955;-65
2023/06/06 03:55:09;;;;;;;6.63;6.03;;;20.00;76.70;;;;;;5010080;28;20228;-64
2023/06/06 03:57:37;;;;;;;6.50;5.90;;;20.00;77.20;;;;;;5013404;28;20420;-66
2023/06/06 04:00:09;;;;;;;7.30;6.37;;;20.00;77.20;;;;;;5013977;28;20463;-66
2023/06/06 04:02:34;;;;;;;8.50;6.60;;;20.00;77.40;;;;;;5012510;28;20460;-66
2023/06/06 04:05:01;;;;;;;8.60;7.80;;;20.00;77.70;;;;;;5010485;28;20506;-66
2023/06/06 04:07:28;;;;;;;6.63;6.03;;;20.00;78.30;;;;;;5012988;28;20207;-65
2023/06/06 04:09:54;;;;;;;8.47;6.00;;;20.00;78.30;;;;;;5011983;28;20483;-66
2023/06/06 04:12:20;;;;;;;8.20;6.73;;;20.00;78.60;;;;;;5012550;28;20416;-65
2023/06/06 04:14:47;;;;;;;8.20;6.40;;;20.00;78.60;;;;;;5011716;28;22041;-65
2023/06/06 04:17:13;;;;;;;8.17;5.90;;;20.00;78.70;;;;;;5016647;28;20193;-65
2023/06/06 04:19:38;;;;;;;6.87;6.23;;;20.00;78.90;;;;;;5016518;28;20467;-66
2023/06/06 04:22:05;;;;;;;9.30;6.30;;;19.90;79.40;;;;;;5017484;28;20835;-65
2023/06/06 04:24:31;;;;;;;7.43;6.73;;;19.90;79.50;;;;;;5017061;28;20219;-66
2023/06/06 04:26:57;;;;;;;6.70;6.10;;;20.00;79.80;;;;;;5017467;28;21473;-66
2023/06/06 04:29:23;;;;;;;7.57;6.40;;;20.00;79.80;;;;;;5014674;28;20542;-65
2023/06/06 04:31:48;;;;;;;6.63;5.93;;;20.00;80.10;;;;;;5016268;28;20509;-65
2023/06/06 04:34:14;;;;;;;7.10;6.47;;;20.00;80.20;;;;;;5015937;28;20982;-66
2023/06/06 04:36:40;;;;;;;7.60;6.40;;;19.90;80.70;;;;;;5018374;28;20188;-66
2023/06/06 04:39:07;;;;;;;7.73;7.03;;;19.90;80.90;;;;;;5009721;28;20608;-66
2023/06/06 04:41:34;;;;;;;6.97;6.37;;;19.90;80.80;;;;;;5017322;28;20436;-66
2023/06/06 04:44:03;;;;;;;6.53;5.93;;;20.00;80.80;;;;;;5021844;28;20683;-66
2023/06/06 04:46:29;;;;;;;6.90;6.30;;;20.00;81.00;;;;;;5013448;28;20532;-66
2023/06/06 04:48:56;;;;;;;7.80;6.63;;;20.00;81.00;;;;;;5017995;28;20465;-66
2023/06/06 04:51:29;;;;;;;8.13;7.40;;;20.00;80.70;;;;;;5013959;28;20436;-66
2023/06/06 04:54:00;;;;;;;7.33;6.50;;;20.00;80.80;;;;;;5017958;28;20407;-66
2023/06/06 04:56:28;;;;;;;7.13;6.47;;;19.90;80.90;;;;;;5012937;28;20835;-66
2023/06/06 04:59:05;;;;;;;7.80;7.10;;;19.90;80.80;;;;;;5016373;28;20486;-66
2023/06/06 05:01:36;;;;;;;10.03;6.60;;;19.90;81.20;;;;;;5017413;28;20439;-66
2023/06/06 05:04:02;;;;;;;6.63;6.03;;;19.90;81.20;;;;;;5010613;28;20448;-66
2023/06/06 05:06:31;;;;;;;8.10;6.80;;;19.90;81.00;;;;;;5016599;28;20450;-66
2023/06/06 05:08:59;;;;;;;9.27;6.43;;;19.90;80.90;;;;;;5013955;28;20969;-66
2023/06/06 05:11:25;;;;;;;7.20;6.50;;;19.90;81.00;;;;;;5010420;28;20554;-66
2023/06/06 05:13:51;;;;;;;6.93;6.20;;;19.90;81.00;;;;;;5012033;28;21238;-66
2023/06/06 05:16:16;;;;;;;7.40;6.40;;;19.90;80.90;;;;;;5018360;28;20590;-66
2023/06/06 05:18:42;;;;;;;7.60;6.60;;;20.00;81.10;;;;;;5012034;28;20228;-66
2023/06/06 05:21:08;;;;;;;7.07;6.23;;;20.00;81.00;;;;;;5012116;28;20193;-66
2023/06/06 05:23:34;;;;;;;7.37;6.10;;;19.90;80.90;;;;;;5013303;28;20209;-66
2023/06/06 05:26:00;;;;;;;7.70;7.00;;;19.90;81.30;;;;;;5013712;28;20518;-66
2023/06/06 05:28:27;;;;;;;6.63;6.07;;;19.90;81.30;;;;;;5011103;28;20878;-66
2023/06/06 05:30:52;;;;;;;8.40;6.17;;;19.80;81.30;;;;;;5015914;28;20191;-66
2023/06/06 05:33:20;;;;;;;6.60;6.00;;;19.90;81.70;;;;;;5013908;28;20424;-66
2023/06/06 05:35:47;;;;;;;6.80;6.20;;;19.90;81.70;;;;;;5012715;28;20192;-66
2023/06/06 05:38:13;;;;;;;11.97;7.20;;;20.00;81.70;;;;;;5010692;28;20451;-66
2023/06/06 05:40:39;;;;;;;6.83;6.13;;;20.00;81.80;;;;;;5012940;28;20501;-66
2023/06/06 05:43:05;;;;;;;6.27;5.67;;;20.00;82.00;;;;;;5015019;28;20432;-66
2023/06/06 05:45:30;;;;;;;9.70;6.60;;;20.00;81.70;;;;;;5016788;28;20613;-66
2023/06/06 05:47:56;;;;;;;6.90;6.30;;;20.10;81.60;;;;;;5016927;28;20549;-66
2023/06/06 05:50:21;;;;;;;6.97;6.27;;;20.10;81.70;;;;;;5011494;28;20212;-66
2023/06/06 05:52:47;;;;;;;6.90;6.30;;;20.10;81.60;;;;;;5013788;28;20220;-66
2023/06/06 05:55:32;;;;;;;7.30;6.50;;;20.20;81.30;;;;;;5013100;28;20657;-66
2023/06/06 05:57:59;;;;;;;8.77;6.03;;;20.20;80.90;;;;;;5016175;28;20180;-66
2023/06/06 06:00:26;;;;;;;6.43;5.87;;;20.30;80.80;;;;;;5011850;28;20443;-65
2023/06/06 06:02:55;;;;;;;7.20;6.03;;;20.30;79.90;;;;;;5015897;28;20423;-66
2023/06/06 06:05:22;;;;;;;8.57;6.33;;;20.40;80.20;;;;;;5015668;28;20459;-66
2023/06/06 06:07:47;;;;;;;8.90;7.33;;;20.40;80.00;;;;;;5014817;28;20451;-66
2023/06/06 06:10:14;;;;;;;6.50;5.40;;;20.40;79.60;;;;;;5015117;28;20454;-66
2023/06/06 06:12:44;;;;;;;6.77;6.17;;;20.50;79.40;;;;;;5014216;28;20199;-66
2023/06/06 06:15:11;;;;;;;7.03;6.33;;;20.50;79.10;;;;;;5012114;28;20431;-66
2023/06/06 06:17:36;;;;;;;6.13;5.50;;;20.60;79.10;;;;;;5012820;28;20449;-66
2023/06/06 06:20:08;;;;;;;6.87;6.00;;;20.60;78.80;;;;;;5015305;28;20467;-66
2023/06/06 06:22:37;;;;;;;7.20;5.70;;;20.70;78.40;;;;;;5013238;28;20206;-66
2023/06/06 06:25:05;;;;;;;7.80;5.97;;;20.70;78.00;;;;;;5010323;28;20973;-66
2023/06/06 06:27:33;;;;;;;6.40;5.80;;;20.80;77.80;;;;;;5008103;28;20459;-66
2023/06/06 06:30:01;;;;;;;6.53;5.93;;;20.80;77.10;;;;;;5008045;28;20444;-66
2023/06/06 06:32:27;;;;;;;6.80;5.93;;;20.80;77.10;;;;;;5039915;28;20434;-64
2023/06/06 06:34:53;;;;;;;6.00;5.27;;;20.80;76.70;;;;;;5009685;28;20515;-65
2023/06/06 06:37:18;;;;;;;11.57;6.00;;;20.90;77.20;;;;;;5017182;28;20176;-65
2023/06/06 06:39:45;;;;;;;11.33;6.03;;;21.00;76.10;;;;;;5017693;28;20306;-65
2023/06/06 06:42:11;;;;;;;7.57;6.17;;;20.90;75.90;;;;;;5009778;28;20604;-65
2023/06/06 06:44:36;;;;;;;7.30;6.17;;;21.00;76.00;;;;;;5008146;28;20517;-65
2023/06/06 06:47:03;;;;;;;7.17;6.43;;;21.00;75.80;;;;;;5018395;28;20177;-65
2023/06/06 06:49:29;;;;;;;8.73;5.43;;;21.10;75.80;;;;;;5011324;28;20201;-65
2023/06/06 06:51:56;;;;;;;6.67;5.50;;;21.10;75.60;;;;;;5014807;28;20415;-65
2023/06/06 06:54:24;;;;;;;6.37;5.60;;;21.20;75.50;;;;;;5011791;28;20530;-65
2023/06/06 06:56:51;;;;;;;8.03;6.50;;;21.20;75.00;;;;;;5014127;28;20481;-65
2023/06/06 06:59:17;;;;;;;6.27;5.77;;;21.30;74.80;;;;;;5007635;28;20444;-65
2023/06/06 07:01:47;;;;;;;7.00;5.50;;;21.30;74.80;;;;;;5015052;28;20523;-65
2023/06/06 07:04:13;;;;;;;8.83;6.70;;;21.30;74.50;;;;;;5017559;28;20431;-66
2023/06/06 07:06:39;;;;;;;9.90;6.43;;;21.40;73.50;;;;;;5011500;28;20510;-65
2023/06/06 07:09:05;;;;;;;5.57;4.93;;;21.50;72.80;;;;;;5016147;28;20452;-65
2023/06/06 07:11:31;;;;;;;6.73;6.07;;;21.50;71.60;;;;;;5016068;28;20943;-65
2023/06/06 07:13:56;;;;;;;7.83;7.03;;;21.50;69.30;;;;;;5016984;28;20196;-65
2023/06/06 07:16:25;;;;;;;10.13;6.30;;;21.60;69.90;;;;;;5018830;28;20247;-66
2023/06/06 07:18:52;;;;;;;7.70;5.77;;;21.60;69.50;;;;;;5010835;28;20217;-65
2023/06/06 07:21:21;;;;;;;6.77;6.17;;;21.70;68.50;;;;;;5009854;28;20794;-65
2023/06/06 07:23:50;;;;;;;6.93;5.10;;;21.80;68.20;;;;;;5012439;28;20534;-65
2023/06/06 07:26:19;;;;;;;10.37;6.70;;;21.90;67.60;;;;;;5020106;28;20452;-65
2023/06/06 07:28:46;;;;;;;5.80;5.30;;;22.10;66.00;;;;;;5014392;28;20478;-65
2023/06/06 07:31:15;;;;;;;7.67;5.50;;;22.10;65.30;;;;;;5016871;28;20444;-65
2023/06/06 07:33:41;;;;;;;17.37;12.93;;;22.30;63.40;;;;;;5017604;28;20419;-65
2023/06/06 07:36:08;;;;;;;7.67;6.87;;;22.30;63.10;;;;;;5013017;28;20461;-65
2023/06/06 07:38:34;;;;;;;15.33;11.80;;;22.30;62.60;;;;;;5040289;28;20926;-65
2023/06/06 07:40:59;;;;;;;7.30;6.60;;;22.30;62.40;;;;;;5007862;28;20432;-65
2023/06/06 07:43:25;;;;;;;8.63;7.70;;;22.40;62.10;;;;;;5013646;28;20444;-65
2023/06/06 07:45:51;;;;;;;5.70;5.20;;;22.40;61.90;;;;;;5011448;28;20331;-65
2023/06/06 07:48:17;;;;;;;12.53;11.27;;;22.50;61.20;;;;;;5015016;28;20200;-65
2023/06/06 07:50:42;;;;;;;9.57;8.57;;;22.60;60.70;;;;;;5014290;28;20236;-66
2023/06/06 07:53:10;;;;;;;6.10;5.60;;;22.70;60.20;;;;;;5013979;28;20194;-65
2023/06/06 07:55:37;;;;;;;8.93;8.03;;;22.70;60.10;;;;;;5013204;28;20188;-65
2023/06/06 07:58:05;;;;;;;6.70;6.20;;;22.70;59.20;;;;;;5016473;28;20416;-65
2023/06/06 08:00:31;;;;;;;6.40;5.70;;;22.60;59.10;;;;;;5009915;28;20531;-65
2023/06/06 08:02:56;;;;;;;8.20;7.13;;;22.70;59.20;;;;;;5012998;28;20514;-65
2023/06/06 08:05:22;;;;;;;7.73;6.93;;;22.90;58.90;;;;;;5009423;28;20691;-65
2023/06/06 08:07:48;;;;;;;7.07;5.50;;;23.00;58.90;;;;;;5010508;28;20924;-65
2023/06/06 08:10:14;;;;;;;6.13;5.57;;;23.10;58.70;;;;;;5013400;28;20201;-66
2023/06/06 08:12:39;;;;;;;10.27;6.50;;;23.20;58.60;;;;;;5012559;28;20988;-65
2023/06/06 08:15:06;;;;;;;5.70;4.90;;;23.20;58.70;;;;;;5022027;28;20254;-66
2023/06/06 08:17:32;;;;;;;9.27;8.37;;;23.20;58.40;;;;;;5016249;28;20191;-65
2023/06/06 08:19:57;;;;;;;6.40;5.07;;;23.30;57.70;;;;;;5018047;28;20462;-66
2023/06/06 08:22:24;;;;;;;7.00;6.40;;;23.30;57.10;;;;;;5012614;28;20686;-66
2023/06/06 08:24:50;;;;;;;8.03;6.93;;;23.30;57.20;;;;;;5018532;28;20972;-66
2023/06/06 08:27:16;;;;;;;7.50;6.37;;;23.40;56.80;;;;;;5016893;28;20513;-66
2023/06/06 08:29:42;;;;;;;8.10;6.23;;;23.40;56.50;;;;;;5012058;28;20196;-66
2023/06/06 08:32:08;;;;;;;7.70;7.00;;;23.40;56.40;;;;;;5021630;28;20518;-65
2023/06/06 08:34:34;;;;;;;6.50;5.57;;;23.40;56.40;;;;;;5015520;28;20192;-65
2023/06/06 08:37:00;;;;;;;6.57;5.43;;;23.60;56.10;;;;;;5012405;28;20442;-65
2023/06/06 08:39:25;;;;;;;6.13;5.40;;;23.70;55.10;;;;;;5013655;28;20284;-65
2023/06/06 08:41:55;;;;;;;5.37;4.87;;;23.70;54.80;;;;;;5015110;28;20638;-65
2023/06/06 08:44:23;;;;;;;7.37;6.67;;;23.70;54.80;;;;;;5018085;28;20195;-66
2023/06/06 08:46:53;;;;;;;7.57;6.67;;;23.70;54.80;;;;;;5015030;28;20517;-66
2023/06/06 08:49:20;;;;;;;5.73;5.13;;;23.70;54.60;;;;;;5015021;28;20450;-66
2023/06/06 08:51:49;;;;;;;10.70;9.60;;;23.80;54.70;;;;;;5014670;28;20439;-65
2023/06/06 08:54:18;;;;;;;7.23;6.53;;;23.80;54.60;;;;;;5017267;28;20491;-66
2023/06/06 08:56:44;;;;;;;8.50;7.63;;;23.90;54.80;;;;;;5017119;28;20945;-65
2023/06/06 08:59:10;;;;;;;15.17;12.10;;;24.00;55.30;;;;;;5014967;28;20443;-66
2023/06/06 09:01:37;;;;;;;7.23;6.47;;;24.00;55.90;;;;;;5011460;28;20439;-66
2023/06/06 09:04:04;;;;;;;5.77;5.20;;;24.10;55.20;;;;;;5015742;28;20419;-66
2023/06/06 09:06:31;;;;;;;6.03;5.53;;;24.20;54.40;;;;;;5014887;28;21066;-66
2023/06/06 09:08:57;;;;;;;6.83;5.87;;;24.30;53.90;;;;;;5013924;28;20442;-66
2023/06/06 09:11:23;;;;;;;5.77;5.17;;;24.30;54.20;;;;;;5011612;28;20479;-65
2023/06/06 09:13:49;;;;;;;6.60;5.80;;;24.50;54.00;;;;;;5007152;28;21033;-66
2023/06/06 09:16:15;;;;;;;6.20;5.60;;;24.50;54.00;;;;;;5015487;28;20435;-65
2023/06/06 09:18:44;;;;;;;5.97;5.47;;;24.40;53.40;;;;;;5019897;28;20260;-66
2023/06/06 09:21:12;;;;;;;6.77;6.10;;;24.40;53.40;;;;;;5017370;28;20221;-66
2023/06/06 09:23:37;;;;;;;6.30;5.30;;;24.50;53.60;;;;;;5009839;28;20482;-66
2023/06/06 09:26:16;;;;;;;8.27;7.17;;;24.50;53.80;;;;;;5014177;28;20524;-66
2023/06/06 09:28:42;;;;;;;7.20;6.57;;;24.50;53.90;;;;;;5015213;28;20283;-66
2023/06/06 09:31:30;;;;;;;8.27;6.50;;;24.70;53.70;;;;;;5015618;28;20538;-66
2023/06/06 09:34:00;;;;;;;6.73;6.13;;;24.70;53.80;;;;;;5018049;28;20176;-65
2023/06/06 09:36:27;;;;;;;6.73;6.03;;;24.80;53.80;;;;;;5016219;28;20474;-66
2023/06/06 09:39:04;;;;;;;5.60;5.10;;;24.90;53.80;;;;;;5015064;28;20502;-66
2023/06/06 09:41:29;;;;;;;6.77;5.87;;;24.80;53.80;;;;;;5018536;28;20427;-66
2023/06/06 09:43:55;;;;;;;7.30;6.53;;;24.80;53.60;;;;;;5021286;28;20417;-67
2023/06/06 09:46:21;;;;;;;6.60;5.90;;;24.80;53.50;;;;;;5011127;28;20576;-64
2023/06/06 09:48:59;;;;;;;15.90;8.17;;;24.90;53.50;;;;;;5017216;28;20601;-65
2023/06/06 09:51:25;;;;;;;9.47;8.50;;;25.00;52.70;;;;;;5014032;28;20236;-65
2023/06/06 09:53:51;;;;;;;7.27;5.90;;;25.10;52.10;;;;;;5017479;28;20416;-65
2023/06/06 09:56:22;;;;;;;6.60;6.00;;;25.10;51.90;;;;;;5008195;28;20185;-65
2023/06/06 09:58:55;;;;;;;8.60;7.83;;;25.10;51.80;;;;;;5012048;28;20445;-65
2023/06/06 10:01:33;;;;;;;6.87;6.17;;;25.20;53.70;;;;;;5011195;28;20419;-65
2023/06/06 10:03:59;;;;;;;7.00;6.30;;;25.20;52.50;;;;;;5016160;28;20897;-65
2023/06/06 10:06:33;;;;;;;6.20;5.60;;;25.30;52.00;;;;;;5010773;28;20467;-65
2023/06/06 10:08:59;;;;;;;9.10;5.67;;;25.40;50.10;;;;;;5012102;28;20471;-65
2023/06/06 10:11:27;;;;;;;6.33;5.73;;;25.50;49.90;;;;;;5016156;28;20526;-65
2023/06/06 10:13:54;;;;;;;8.00;5.63;;;25.60;49.90;;;;;;5027587;28;20447;-65
2023/06/06 10:16:20;;;;;;;6.47;5.93;;;25.60;50.50;;;;;;5011983;28;20979;-65
2023/06/06 10:18:48;;;;;;;6.57;6.07;;;25.70;49.30;;;;;;5012955;28;20679;-65
2023/06/06 10:21:16;;;;;;;5.80;5.30;;;25.80;49.70;;;;;;5012200;28;20475;-65
2023/06/06 10:23:43;;;;;;;5.40;4.90;;;25.90;49.20;;;;;;5013678;28;20456;-65
2023/06/06 10:26:39;;;;;;;5.50;5.10;;;25.90;49.20;;;;;;5014295;28;20455;-65
2023/06/06 10:29:07;;;;;;;5.53;5.03;;;26.00;48.20;;;;;;5010934;28;20456;-65
2023/06/06 10:31:57;;;;;;;6.73;5.93;;;26.00;47.90;;;;;;5011203;28;20420;-65
2023/06/06 10:34:31;;;;;;;6.63;5.90;;;26.00;48.00;;;;;;5017568;28;20783;-65
2023/06/06 10:37:16;;;;;;;6.10;5.50;;;26.20;47.20;;;;;;5013897;28;20420;-65
2023/06/06 10:39:47;;;;;;;6.93;6.17;;;26.20;47.60;;;;;;5015121;28;20456;-65
2023/06/06 10:42:14;;;;;;;6.43;5.83;;;26.20;47.10;;;;;;5019312;28;20427;-65
2023/06/06 10:44:45;;;;;;;9.67;5.60;;;26.30;47.80;;;;;;5015645;28;20454;-65
2023/06/06 10:47:20;;;;;;;6.63;5.93;;;26.30;47.00;;;;;;5014277;28;20594;-65
2023/06/06 10:50:11;;;;;;;5.97;5.47;;;26.30;47.20;;;;;;5023597;28;20919;-65
2023/06/06 10:52:56;;;;;;;6.03;5.53;;;26.40;47.30;;;;;;5011878;28;20908;-65
2023/06/06 10:55:25;;;;;;;5.87;5.37;;;26.30;47.50;;;;;;5005878;28;21295;-65
2023/06/06 10:57:54;;;;;;;6.30;5.70;;;26.40;47.60;;;;;;5020266;28;20913;-65
2023/06/06 11:00:25;;;;;;;9.43;5.87;;;26.40;47.80;;;;;;5016200;28;20427;-65
2023/06/06 11:02:52;;;;;;;6.30;5.70;;;26.50;47.70;;;;;;5013830;28;20550;-65
2023/06/06 11:05:21;;;;;;;6.30;5.37;;;26.70;47.50;;;;;;5010831;28;20521;-65
2023/06/06 11:07:49;;;;;;;5.87;5.37;;;26.70;47.00;;;;;;5018236;28;20422;-65
2023/06/06 11:10:20;;;;;;;6.80;6.20;;;26.70;47.60;;;;;;5014896;28;20489;-65
2023/06/06 11:12:50;;;;;;;7.40;6.10;;;26.80;48.00;;;;;;5014553;28;20431;-65
2023/06/06 11:15:36;;;;;;;7.03;6.30;;;27.00;46.80;;;;;;5014739;28;20947;-65
2023/06/06 11:18:05;;;;;;;6.40;5.80;;;27.00;46.00;;;;;;5014100;28;20803;-65
2023/06/06 11:20:40;;;;;;;7.10;6.40;;;27.20;45.50;;;;;;5012837;28;20476;-65
2023/06/06 11:23:08;;;;;;;6.33;5.63;;;27.30;44.90;;;;;;5016656;28;20859;-65
2023/06/06 11:25:35;;;;;;;6.63;6.07;;;27.30;45.40;;;;;;5017494;28;20467;-66
2023/06/06 11:28:01;;;;;;;7.03;6.43;;;27.50;44.30;;;;;;5018818;28;20454;-65
2023/06/06 11:30:31;;;;;;;7.17;6.30;;;27.50;44.30;;;;;;5018674;28;20463;-66
2023/06/06 11:32:57;;;;;;;7.40;5.80;;;27.60;44.20;;;;;;5021021;28;20874;-65
2023/06/06 11:35:24;;;;;;;8.93;5.97;;;27.60;44.60;;;;;;5014617;28;20436;-65
2023/06/06 11:37:50;;;;;;;6.60;6.00;;;27.70;44.60;;;;;;5019914;28;20960;-66
2023/06/06 11:40:16;;;;;;;7.07;5.90;;;27.80;44.30;;;;;;5020907;28;20434;-66
2023/06/06 11:42:43;;;;;;;7.60;6.43;;;27.90;44.60;;;;;;5019413;28;20415;-66
2023/06/06 11:45:16;;;;;;;7.07;6.37;;;28.00;44.40;;;;;;5013870;28;20189;-66
2023/06/06 11:47:42;;;;;;;7.20;6.60;;;28.20;44.40;;;;;;5013034;28;20442;-66
2023/06/06 11:50:09;;;;;;;7.70;6.10;;;28.10;44.10;;;;;;5011600;28;20457;-66
2023/06/06 11:52:48;;;;;;;6.90;6.30;;;28.10;44.10;;;;;;5020074;28;20431;-66
2023/06/06 11:55:15;;;;;;;6.07;5.47;;;28.30;44.00;;;;;;5018053;28;20447;-66
2023/06/06 11:57:41;;;;;;;6.33;5.73;;;28.50;43.40;;;;;;5015384;28;21008;-66
2023/06/06 12:00:10;;;;;;;5.80;5.30;;;28.70;43.70;;;;;;5018157;28;20458;-66
2023/06/06 12:02:36;;;;;;;6.13;5.63;;;29.20;42.70;;;;;;5020585;28;20455;-66
2023/06/06 12:05:03;;;;;;;7.10;5.63;;;29.90;41.60;;;;;;5015869;28;20865;-66
2023/06/06 12:07:29;;;;;;;6.73;5.60;;;30.90;40.90;;;;;;5017705;28;20407;-66
2023/06/06 12:09:58;;;;;;;5.57;5.17;;;32.00;38.90;;;;;;5020726;28;20440;-66
2023/06/06 12:12:24;;;;;;;8.83;5.93;;;32.90;38.90;;;;;;5017414;28;20449;-66
2023/06/06 12:14:59;;;;;;;6.07;5.50;;;33.70;38.80;;;;;;5018279;28;20481;-66
2023/06/06 12:17:29;;;;;;;6.20;5.70;;;34.20;37.70;;;;;;5015627;28;20191;-66
2023/06/06 12:19:55;;;;;;;7.00;5.53;;;34.00;36.20;;;;;;5019403;28;20537;-66
2023/06/06 12:22:29;;;;;;;6.17;5.50;;;34.30;35.60;;;;;;5016339;28;20448;-66
2023/06/06 12:24:54;;;;;;;6.40;5.80;;;33.80;33.00;;;;;;5016592;28;20443;-66
2023/06/06 12:27:27;;;;;;;6.20;5.70;;;33.50;33.40;;;;;;5016590;28;20907;-66
2023/06/06 12:29:54;;;;;;;6.23;5.73;;;33.70;33.60;;;;;;5010797;28;20200;-66
2023/06/06 12:32:30;;;;;;;6.27;5.37;;;33.70;34.10;;;;;;5020376;28;20394;-66
2023/06/06 12:35:05;;;;;;;5.97;5.20;;;33.80;34.30;;;;;;5013799;28;20935;-66
2023/06/06 12:37:41;;;;;;;6.23;5.60;;;33.80;33.50;;;;;;5016349;28;20402;-66
2023/06/06 12:40:13;;;;;;;11.03;5.80;;;33.70;31.90;;;;;;5019152;28;20505;-66
2023/06/06 12:42:39;;;;;;;6.77;6.07;;;33.60;31.40;;;;;;5009732;28;20443;-66
2023/06/06 12:45:06;;;;;;;5.53;5.10;;;33.60;30.80;;;;;;5010020;28;20444;-66
2023/06/06 12:47:32;;;;;;;6.20;5.60;;;33.70;31.20;;;;;;5018145;28;20414;-66
2023/06/06 12:49:58;;;;;;;6.00;5.50;;;33.90;31.80;;;;;;5012967;28;20790;-66